createdAt,value
2019-03-21T00:00:22.932Z,12.20
2019-03-21T00:02:53.156Z,11.65
2019-03-21T00:05:23.601Z,12.78
2019-03-21T00:07:53.833Z,11.75
2019-03-21T00:10:53.329Z,11.30
2019-03-21T00:13:23.576Z,12.20
2019-03-21T00:15:57.050Z,12.37
2019-03-21T00:18:27.378Z,11.08
2019-03-21T00:20:57.749Z,11.97
2019-03-21T00:23:27.924Z,11.12
2019-03-21T00:25:58.165Z,11.73
2019-03-21T00:28:28.385Z,12.05
2019-03-21T00:30:58.581Z,11.83
2019-03-21T00:33:28.819Z,10.88
2019-03-21T00:35:59.053Z,10.72
2019-03-21T00:38:29.290Z,11.20
2019-03-21T00:40:59.500Z,10.78
2019-03-21T00:43:29.805Z,11.25
2019-03-21T00:46:00.130Z,10.78
2019-03-21T00:48:30.455Z,11.40
2019-03-21T00:51:00.701Z,11.20
2019-03-21T00:53:30.923Z,10.30
2019-03-21T00:56:01.137Z,10.20
2019-03-21T00:58:31.465Z,10.88
2019-03-21T01:01:01.982Z,10.88
2019-03-21T01:03:32.202Z,10.13
2019-03-21T01:06:02.339Z,10.70
2019-03-21T01:08:32.573Z,10.63
2019-03-21T01:11:02.805Z,10.48
2019-03-21T01:13:34.443Z,10.50
2019-03-21T01:16:04.744Z,10.75
2019-03-21T01:18:35.288Z,10.43
2019-03-21T01:21:05.520Z,9.50
2019-03-21T01:23:35.752Z,9.73
2019-03-21T01:26:05.968Z,9.20
2019-03-21T01:28:36.282Z,10.23
2019-03-21T01:31:06.595Z,9.75
2019-03-21T01:33:36.732Z,10.03
2019-03-21T01:36:06.971Z,9.30
2019-03-21T01:38:37.194Z,10.03
2019-03-21T01:41:07.540Z,10.10
2019-03-21T01:43:37.833Z,9.55
2019-03-21T01:46:10.194Z,9.95
2019-03-21T01:48:40.516Z,9.73
2019-03-21T01:51:10.730Z,9.53
2019-03-21T01:53:40.889Z,10.13
2019-03-21T01:56:11.100Z,9.78
2019-03-21T01:58:41.346Z,9.43
2019-03-21T02:01:11.630Z,9.53
2019-03-21T02:03:41.858Z,9.58
2019-03-21T02:06:12.084Z,9.03
2019-03-21T02:08:42.325Z,9.55
2019-03-21T02:11:12.548Z,9.50
2019-03-21T02:13:42.863Z,9.05
2019-03-21T02:16:13.175Z,9.50
2019-03-21T02:18:43.501Z,8.98
2019-03-21T02:21:13.734Z,9.63
2019-03-21T02:23:43.985Z,9.60
2019-03-21T02:26:14.186Z,8.40
2019-03-21T02:28:44.501Z,9.48
2019-03-21T02:31:14.812Z,8.83
2019-03-21T02:33:45.152Z,8.88
2019-03-21T02:36:15.398Z,9.20
2019-03-21T02:38:45.602Z,9.10
2019-03-21T02:41:15.817Z,9.20
2019-03-21T02:43:46.140Z,8.90
2019-03-21T02:46:16.497Z,9.15
2019-03-21T02:48:46.786Z,8.70
2019-03-21T02:51:16.919Z,8.60
2019-03-21T02:53:47.155Z,8.13
2019-03-21T02:56:18.073Z,9.30
2019-03-21T02:58:48.334Z,8.55
2019-03-21T03:01:18.540Z,9.38
2019-03-21T03:03:48.871Z,8.98
2019-03-21T03:06:19.164Z,9.48
2019-03-21T03:08:49.299Z,7.97
2019-03-21T03:11:19.640Z,8.10
2019-03-21T03:13:50.360Z,9.00
2019-03-21T03:16:20.692Z,9.35
2019-03-21T03:18:50.814Z,8.95
2019-03-21T03:21:21.129Z,9.30
2019-03-21T03:23:51.336Z,8.60
2019-03-21T03:26:21.694Z,8.95
2019-03-21T03:28:51.811Z,8.53
2019-03-21T03:31:22.052Z,8.83
2019-03-21T03:33:52.269Z,8.38
2019-03-21T03:36:22.570Z,8.15
2019-03-21T03:38:52.776Z,8.53
2019-03-21T03:41:23.031Z,7.87
2019-03-21T03:43:53.242Z,8.98
2019-03-21T03:46:23.554Z,8.35
2019-03-21T03:48:53.875Z,8.28
2019-03-21T03:51:24.101Z,8.35
2019-03-21T03:53:54.231Z,8.53
2019-03-21T03:56:24.475Z,8.33
2019-03-21T03:58:55.192Z,8.58
2019-03-21T04:01:25.428Z,8.63
2019-03-21T04:03:55.633Z,7.65
2019-03-21T04:06:25.993Z,8.48
2019-03-21T04:08:56.271Z,7.78
2019-03-21T04:11:26.437Z,8.60
2019-03-21T04:13:56.627Z,7.55
2019-03-21T04:16:27.091Z,8.05
2019-03-21T04:18:57.304Z,7.30
2019-03-21T04:21:27.594Z,8.50
2019-03-21T04:23:59.833Z,7.72
2019-03-21T04:26:30.818Z,7.95
2019-03-21T04:29:01.045Z,8.08
2019-03-21T04:31:31.354Z,8.23
2019-03-21T04:34:03.147Z,7.87
2019-03-21T04:36:33.445Z,7.92
2019-03-21T04:39:04.626Z,8.18
2019-03-21T04:41:34.909Z,7.45
2019-03-21T04:44:05.230Z,8.40
2019-03-21T04:46:35.444Z,7.65
2019-03-21T04:49:05.601Z,7.17
2019-03-21T04:51:35.814Z,6.72
2019-03-21T04:54:06.317Z,7.40
2019-03-21T04:56:37.538Z,7.42
2019-03-21T04:59:07.754Z,7.83
2019-03-21T05:01:37.933Z,7.15
2019-03-21T05:04:08.275Z,7.97
2019-03-21T05:06:38.564Z,7.33
2019-03-21T05:09:12.093Z,7.58
2019-03-21T05:11:42.383Z,7.42
2019-03-21T05:14:12.557Z,7.45
2019-03-21T05:16:42.894Z,7.28
2019-03-21T05:19:13.077Z,7.47
2019-03-21T05:21:43.429Z,8.05
2019-03-21T05:24:13.717Z,7.30
2019-03-21T05:26:43.955Z,7.33
2019-03-21T05:29:13.899Z,7.05
2019-03-21T05:31:44.361Z,7.08
2019-03-21T05:34:14.609Z,7.17
2019-03-21T05:36:46.374Z,8.28
2019-03-21T05:39:16.604Z,7.45
2019-03-21T05:41:46.821Z,7.25
2019-03-21T05:44:24.933Z,8.50
2019-03-21T05:46:55.137Z,8.73
2019-03-21T05:49:25.373Z,9.63
2019-03-21T05:51:55.484Z,9.90
2019-03-21T05:54:25.638Z,9.93
2019-03-21T05:56:55.932Z,8.98
2019-03-21T05:59:26.263Z,10.53
2019-03-21T06:01:57.101Z,10.72
2019-03-21T06:04:27.430Z,10.32
2019-03-21T06:07:36.243Z,10.55
2019-03-21T06:10:08.949Z,9.90
2019-03-21T06:12:45.815Z,10.53
2019-03-21T06:15:18.694Z,10.45
2019-03-21T06:17:58.126Z,10.30
2019-03-21T06:20:53.207Z,10.65
2019-03-21T06:23:42.674Z,10.20
2019-03-21T06:26:50.515Z,9.90
2019-03-21T06:29:20.840Z,10.03
2019-03-21T06:31:50.777Z,15.55
2019-03-21T06:34:20.907Z,12.35
2019-03-21T06:36:51.131Z,10.43
2019-03-21T06:39:21.439Z,15.48
2019-03-21T06:41:51.746Z,12.40
2019-03-21T06:44:21.897Z,13.08
2019-03-21T06:46:52.118Z,12.90
2019-03-21T06:49:22.269Z,12.88
2019-03-21T06:51:52.457Z,12.82
2019-03-21T06:54:22.753Z,13.00
2019-03-21T06:56:52.909Z,14.30
2019-03-21T06:59:23.102Z,15.08
2019-03-21T07:01:53.324Z,14.60
2019-03-21T07:04:23.506Z,15.98
2019-03-21T07:06:53.684Z,15.80
2019-03-21T07:09:23.864Z,15.10
2019-03-21T07:11:54.044Z,15.75
2019-03-21T07:14:24.337Z,16.65
2019-03-21T07:17:00.439Z,16.70
2019-03-21T07:19:26.629Z,17.67
2019-03-21T07:21:56.857Z,17.57
2019-03-21T07:24:26.992Z,18.05
2019-03-21T07:26:57.232Z,17.40
2019-03-21T07:29:27.517Z,18.90
2019-03-21T07:31:57.745Z,18.95
2019-03-21T07:34:27.897Z,18.40
2019-03-21T07:36:58.106Z,19.85
2019-03-21T07:39:28.809Z,19.10
2019-03-21T07:42:01.213Z,18.25
2019-03-21T07:44:31.092Z,18.80
2019-03-21T07:47:12.027Z,18.77
2019-03-21T07:49:33.292Z,18.90
2019-03-21T07:52:03.524Z,19.12
2019-03-21T07:54:33.787Z,18.50
2019-03-21T07:57:04.002Z,19.10
2019-03-21T07:59:34.223Z,19.02
2019-03-21T08:02:04.520Z,18.17
2019-03-21T08:04:34.739Z,18.90
2019-03-21T08:07:04.919Z,19.77
2019-03-21T08:09:35.175Z,18.60
2019-03-21T08:12:05.335Z,19.30
2019-03-21T08:14:35.628Z,18.77
2019-03-21T08:17:06.068Z,18.25
2019-03-21T08:19:36.380Z,18.85
2019-03-21T08:22:06.541Z,17.87
2019-03-21T08:24:36.863Z,18.40
2019-03-21T08:27:07.085Z,16.95
2019-03-21T08:29:37.377Z,17.82
2019-03-21T08:32:07.706Z,17.82
2019-03-21T08:34:38.774Z,18.48
2019-03-21T08:37:09.003Z,17.20
2019-03-21T08:39:39.293Z,17.87
2019-03-21T08:42:09.636Z,17.50
2019-03-21T08:44:39.862Z,17.48
2019-03-21T08:47:10.096Z,16.87
2019-03-21T08:49:40.313Z,17.80
2019-03-21T08:52:10.619Z,17.07
2019-03-21T08:54:40.843Z,16.48
2019-03-21T08:57:10.977Z,15.70
2019-03-21T08:59:41.201Z,16.57
2019-03-21T09:02:11.422Z,16.70
2019-03-21T09:04:41.719Z,16.62
2019-03-21T09:07:11.954Z,16.23
2019-03-21T09:09:42.276Z,15.90
2019-03-21T09:12:12.481Z,16.00
2019-03-21T09:14:42.629Z,15.45
2019-03-21T09:17:12.883Z,16.57
2019-03-21T09:19:43.172Z,16.55
2019-03-21T09:22:15.939Z,16.10
2019-03-21T09:24:45.383Z,16.55
2019-03-21T09:27:15.598Z,15.50
2019-03-21T09:29:53.581Z,15.35
2019-03-21T09:32:17.813Z,15.75
2019-03-21T09:34:48.127Z,15.60
2019-03-21T09:37:18.421Z,15.00
2019-03-21T09:39:48.649Z,15.63
2019-03-21T09:42:18.996Z,14.18
2019-03-21T09:44:50.368Z,15.15
2019-03-21T09:47:20.746Z,14.53
2019-03-21T09:49:50.971Z,14.78
2019-03-21T09:52:21.208Z,14.20
2019-03-21T09:54:51.430Z,13.45
2019-03-21T09:57:21.846Z,14.43
2019-03-21T09:59:52.055Z,14.15
2019-03-21T10:02:22.285Z,14.58
2019-03-21T10:04:52.578Z,13.30
2019-03-21T10:07:22.755Z,13.80
2019-03-21T10:09:53.050Z,13.98
2019-03-21T10:12:23.288Z,13.72
2019-03-21T10:14:53.600Z,13.68
2019-03-21T10:17:23.853Z,13.43
2019-03-21T10:19:54.061Z,13.22
2019-03-21T10:22:24.306Z,12.98
2019-03-21T10:24:54.587Z,13.88
2019-03-21T10:27:24.922Z,13.40
2019-03-21T10:29:55.071Z,13.00
2019-03-21T10:32:25.291Z,12.98
2019-03-21T10:34:55.685Z,13.35
2019-03-21T10:37:26.764Z,13.28
2019-03-21T10:39:56.985Z,12.40
2019-03-21T10:42:27.224Z,12.18
2019-03-21T10:44:57.420Z,12.20
2019-03-21T10:47:27.729Z,13.03
2019-03-21T10:49:58.052Z,11.80
2019-03-21T10:52:28.265Z,12.85
2019-03-21T10:54:58.416Z,12.68
2019-03-21T10:57:28.636Z,12.60
2019-03-21T11:00:01.601Z,11.60
2019-03-21T11:02:30.898Z,11.93
2019-03-21T11:05:01.049Z,13.05
2019-03-21T11:07:31.274Z,11.73
2019-03-21T11:10:01.502Z,12.18
2019-03-21T11:12:31.795Z,12.28
2019-03-21T11:15:02.139Z,11.90
2019-03-21T11:17:32.375Z,12.37
2019-03-21T11:20:02.619Z,11.90
2019-03-21T11:22:32.815Z,11.57
2019-03-21T11:25:03.117Z,13.13
2019-03-21T11:27:33.338Z,11.08
2019-03-21T11:30:03.500Z,12.20
2019-03-21T11:32:33.795Z,11.30
2019-03-21T11:35:03.737Z,11.15
2019-03-21T11:37:34.229Z,11.12
2019-03-21T11:40:04.697Z,11.28
2019-03-21T11:42:34.996Z,10.72
2019-03-21T11:45:05.623Z,11.50
2019-03-21T11:47:41.583Z,10.85
2019-03-21T11:50:07.931Z,10.63
2019-03-21T11:52:40.921Z,10.95
2019-03-21T11:55:10.123Z,10.50
2019-03-21T11:57:40.337Z,11.28
2019-03-21T12:00:10.639Z,10.63
2019-03-21T12:02:40.879Z,10.78
2019-03-21T12:05:11.143Z,10.38
2019-03-21T12:07:41.347Z,10.13
2019-03-21T12:10:11.452Z,11.10
2019-03-21T12:12:41.770Z,10.48
2019-03-21T12:15:12.100Z,11.00
2019-03-21T12:17:42.334Z,11.43
2019-03-21T12:20:12.896Z,10.88
2019-03-21T12:22:43.026Z,11.33
2019-03-21T12:25:13.279Z,11.25
2019-03-21T12:27:43.511Z,10.58
2019-03-21T12:30:16.042Z,10.20
2019-03-21T12:32:46.308Z,10.82
2019-03-21T12:35:16.630Z,11.35
2019-03-21T12:37:46.964Z,10.85
2019-03-21T12:40:17.111Z,9.83
2019-03-21T12:42:47.434Z,10.00
2019-03-21T12:45:17.629Z,9.78
2019-03-21T12:47:47.957Z,9.88
2019-03-21T12:50:18.268Z,10.18
2019-03-21T12:52:48.564Z,9.68
2019-03-21T12:55:18.742Z,10.03
2019-03-21T12:57:48.955Z,10.75
2019-03-21T13:00:30.640Z,10.98
2019-03-21T13:03:01.034Z,11.22
2019-03-21T13:05:31.308Z,13.03
2019-03-21T13:08:01.613Z,13.53
2019-03-21T13:10:31.847Z,13.60
2019-03-21T13:13:02.161Z,12.50
2019-03-21T13:15:32.309Z,13.38
2019-03-21T13:18:02.513Z,13.68
2019-03-21T13:20:32.752Z,13.32
2019-03-21T13:23:03.059Z,13.48
2019-03-21T13:25:33.376Z,15.10
2019-03-21T13:28:03.615Z,15.45
2019-03-21T13:30:33.860Z,15.23
2019-03-21T13:33:04.049Z,13.75
2019-03-21T13:35:34.374Z,13.18
2019-03-21T13:38:04.796Z,13.90
2019-03-21T13:40:35.030Z,13.85
2019-03-21T13:43:05.346Z,13.38
2019-03-21T13:45:35.695Z,12.68
2019-03-21T13:48:05.912Z,12.50
2019-03-21T13:50:35.896Z,11.95
2019-03-21T13:53:17.808Z,11.97
2019-03-21T13:55:37.723Z,12.13
2019-03-21T13:58:08.009Z,11.73
2019-03-21T14:00:40.872Z,11.45
2019-03-21T14:03:10.198Z,10.38
2019-03-21T14:05:40.383Z,11.28
2019-03-21T14:08:10.772Z,10.10
2019-03-21T14:10:40.997Z,11.15
2019-03-21T14:13:11.302Z,11.18
2019-03-21T14:15:41.525Z,10.65
2019-03-21T14:18:11.768Z,10.48
2019-03-21T14:20:41.984Z,9.88
2019-03-21T14:23:17.242Z,9.63
2019-03-21T14:25:44.180Z,9.70
2019-03-21T14:28:14.481Z,9.63
2019-03-21T14:30:44.800Z,9.45
2019-03-21T14:33:15.134Z,10.82
2019-03-21T14:35:45.070Z,10.35
2019-03-21T14:38:25.785Z,10.40
2019-03-21T14:40:47.251Z,10.63
2019-03-21T14:43:17.559Z,10.13
2019-03-21T14:45:47.887Z,10.28
2019-03-21T14:48:18.035Z,9.73
2019-03-21T14:50:48.253Z,9.08
2019-03-21T14:53:28.247Z,10.30
2019-03-21T14:55:50.341Z,10.60
2019-03-21T14:58:20.633Z,10.32
2019-03-21T15:00:50.803Z,10.35
2019-03-21T15:03:20.931Z,9.93
2019-03-21T15:05:51.131Z,9.23
2019-03-21T15:08:21.423Z,10.10
2019-03-21T15:10:51.650Z,9.20
2019-03-21T15:13:21.998Z,9.08
2019-03-21T15:15:52.126Z,9.83
2019-03-21T15:18:22.335Z,10.00
2019-03-21T15:20:52.646Z,9.33
2019-03-21T15:23:22.862Z,9.08
2019-03-21T15:25:53.401Z,8.43
2019-03-21T15:28:23.713Z,9.10
2019-03-21T15:30:53.843Z,9.45
2019-03-21T15:33:24.084Z,8.93
2019-03-21T15:35:54.316Z,8.58
2019-03-21T15:38:27.519Z,9.38
2019-03-21T15:40:56.570Z,8.95
2019-03-21T15:43:26.909Z,9.68
2019-03-21T15:45:57.142Z,9.63
2019-03-21T15:48:27.381Z,11.15
2019-03-21T15:51:04.535Z,13.85
2019-03-21T15:53:29.538Z,13.68
2019-03-21T15:55:59.863Z,14.35
2019-03-21T15:58:30.204Z,14.33
2019-03-21T16:01:00.257Z,13.98
2019-03-21T16:03:30.445Z,13.83
2019-03-21T16:06:00.747Z,13.95
2019-03-21T16:08:31.086Z,15.35
2019-03-21T16:11:01.394Z,13.95
2019-03-21T16:13:31.555Z,15.28
2019-03-21T16:16:01.758Z,13.70
2019-03-21T16:18:32.070Z,14.68
2019-03-21T16:21:02.389Z,14.95
2019-03-21T16:23:32.728Z,14.38
2019-03-21T16:26:02.961Z,14.93
2019-03-21T16:28:33.188Z,15.78
2019-03-21T16:31:03.396Z,14.65
2019-03-21T16:33:33.612Z,14.40
2019-03-21T16:36:03.947Z,14.33
2019-03-21T16:38:34.180Z,14.33
2019-03-21T16:41:04.421Z,13.48
2019-03-21T16:43:34.688Z,13.68
2019-03-21T16:46:05.039Z,12.70
2019-03-21T16:48:35.357Z,13.72
2019-03-21T16:51:05.586Z,13.90
2019-03-21T16:53:35.817Z,13.28
2019-03-21T16:56:06.049Z,13.22
2019-03-21T16:58:36.268Z,13.05
2019-03-21T17:01:06.738Z,13.62
2019-03-21T17:03:36.899Z,12.70
2019-03-21T17:06:07.234Z,13.75
2019-03-21T17:08:37.486Z,12.20
2019-03-21T17:11:07.725Z,12.65
2019-03-21T17:13:37.931Z,13.48
2019-03-21T17:16:08.221Z,12.37
2019-03-21T17:18:38.547Z,14.07
2019-03-21T17:21:09.738Z,15.10
2019-03-21T17:23:40.049Z,18.65
2019-03-21T17:26:10.473Z,18.50
2019-03-21T17:28:40.775Z,17.17
2019-03-21T17:31:11.102Z,17.40
2019-03-21T17:33:41.345Z,14.18
2019-03-21T17:36:11.655Z,15.55
2019-03-21T17:38:41.880Z,14.43
2019-03-21T17:41:12.188Z,15.35
2019-03-21T17:43:42.568Z,14.30
2019-03-21T17:46:12.765Z,14.60
2019-03-21T17:48:42.989Z,13.95
2019-03-21T17:51:13.213Z,13.85
2019-03-21T17:53:43.684Z,14.13
2019-03-21T17:56:13.940Z,13.72
2019-03-21T17:58:44.189Z,13.80
2019-03-21T18:01:14.413Z,13.25
2019-03-21T18:03:44.358Z,12.35
2019-03-21T18:06:14.633Z,13.18
2019-03-21T18:08:44.877Z,13.13
2019-03-21T18:11:14.975Z,13.30
2019-03-21T18:13:45.199Z,13.45
2019-03-21T18:16:15.558Z,13.83
2019-03-21T18:18:45.838Z,13.45
2019-03-21T18:21:16.110Z,14.15
2019-03-21T18:23:46.308Z,14.00
2019-03-21T18:26:16.535Z,13.55
2019-03-21T18:28:46.843Z,14.05
2019-03-21T18:31:17.157Z,13.85
2019-03-21T18:33:47.390Z,12.30
2019-03-21T18:36:17.631Z,12.60
2019-03-21T18:38:58.781Z,12.82
2019-03-21T18:41:19.958Z,12.85
2019-03-21T18:43:50.146Z,12.37
2019-03-21T18:46:20.443Z,12.63
2019-03-21T18:48:50.588Z,12.15
2019-03-21T18:51:20.798Z,12.93
2019-03-21T18:53:51.052Z,12.60
2019-03-21T18:56:21.334Z,12.10
2019-03-21T18:58:51.561Z,11.70
2019-03-21T19:01:21.801Z,11.70
2019-03-21T19:03:51.771Z,12.07
2019-03-21T19:06:22.018Z,13.05
2019-03-21T19:08:52.257Z,11.88
2019-03-21T19:11:22.484Z,10.23
2019-03-21T19:13:52.708Z,11.45
2019-03-21T19:16:22.927Z,11.97
2019-03-21T19:18:53.277Z,11.57
2019-03-21T19:21:23.565Z,12.35
2019-03-21T19:23:53.690Z,11.57
2019-03-21T19:26:23.928Z,11.10
2019-03-21T19:28:54.246Z,12.00
2019-03-21T19:31:24.561Z,11.35
2019-03-21T19:33:54.877Z,11.60
2019-03-21T19:36:25.138Z,10.43
2019-03-21T19:38:55.359Z,11.00
2019-03-21T19:41:25.582Z,10.75
2019-03-21T19:43:55.874Z,10.72
2019-03-21T19:46:26.251Z,9.93
2019-03-21T19:48:56.520Z,10.45
2019-03-21T19:51:26.678Z,10.70
2019-03-21T19:53:56.941Z,10.35
2019-03-21T19:56:27.193Z,10.13
2019-03-21T19:58:57.521Z,10.58
2019-03-21T20:01:27.651Z,10.38
2019-03-21T20:03:57.896Z,10.32
2019-03-21T20:06:28.109Z,10.35
2019-03-21T20:08:58.418Z,10.15
2019-03-21T20:11:28.633Z,9.83
2019-03-21T20:13:58.789Z,9.75
2019-03-21T20:16:29.001Z,9.90
2019-03-21T20:18:59.252Z,9.98
2019-03-21T20:21:29.528Z,9.15
2019-03-21T20:23:59.856Z,9.50
2019-03-21T20:26:30.176Z,9.60
2019-03-21T20:29:00.320Z,9.20
2019-03-21T20:31:30.550Z,10.05
2019-03-21T20:34:00.769Z,9.73
2019-03-21T20:36:30.971Z,9.55
2019-03-21T20:39:01.332Z,9.43
2019-03-21T20:41:31.534Z,8.85
2019-03-21T20:44:01.764Z,9.53
2019-03-21T20:46:31.985Z,9.40
2019-03-21T20:49:02.284Z,9.50
2019-03-21T20:51:32.507Z,8.75
2019-03-21T20:54:02.640Z,9.35
2019-03-21T20:56:32.890Z,9.73
2019-03-21T20:59:03.085Z,9.80
2019-03-21T21:01:33.405Z,8.95
2019-03-21T21:04:03.842Z,9.45
2019-03-21T21:06:34.084Z,9.43
2019-03-21T21:09:05.474Z,9.08
2019-03-21T21:11:35.729Z,9.13
2019-03-21T21:14:06.058Z,9.10
2019-03-21T21:16:36.377Z,8.28
2019-03-21T21:19:06.674Z,9.03
2019-03-21T21:21:36.859Z,8.70
2019-03-21T21:24:07.064Z,8.85
2019-03-21T21:26:37.385Z,9.10
2019-03-21T21:29:07.615Z,9.53
2019-03-21T21:31:37.850Z,8.45
2019-03-21T21:34:08.058Z,8.98
2019-03-21T21:36:38.284Z,8.40
2019-03-21T21:39:09.320Z,8.43
2019-03-21T21:41:39.446Z,9.23
2019-03-21T21:44:09.744Z,8.65
2019-03-21T21:46:39.982Z,8.83
2019-03-21T21:49:12.929Z,9.13
2019-03-21T21:51:42.179Z,9.53
2019-03-21T21:54:12.414Z,10.00
2019-03-21T21:56:42.630Z,8.75
2019-03-21T21:59:12.928Z,8.80
2019-03-21T22:01:43.163Z,9.03
2019-03-21T22:04:13.289Z,9.45
2019-03-21T22:06:43.531Z,9.03
2019-03-21T22:09:13.733Z,9.95
2019-03-21T22:11:44.052Z,9.58
2019-03-21T22:14:14.270Z,9.80
2019-03-21T22:16:44.412Z,9.25
2019-03-21T22:19:14.647Z,9.53
2019-03-21T22:21:44.857Z,9.53
2019-03-21T22:24:15.167Z,9.58
2019-03-21T22:26:45.510Z,10.03
2019-03-21T22:29:15.803Z,8.65
2019-03-21T22:31:45.957Z,9.48
2019-03-21T22:34:18.938Z,8.95
2019-03-21T22:36:49.624Z,9.53
2019-03-21T22:39:19.989Z,9.65
2019-03-21T22:41:50.312Z,9.25
2019-03-21T22:44:20.544Z,8.63
2019-03-21T22:46:50.778Z,9.10
2019-03-21T22:49:20.992Z,9.65
2019-03-21T22:51:51.244Z,8.98
2019-03-21T22:54:21.521Z,8.35
2019-03-21T22:56:51.744Z,9.13
2019-03-21T22:59:21.980Z,9.65
2019-03-21T23:01:52.211Z,8.98
2019-03-21T23:04:22.433Z,9.38
2019-03-21T23:06:52.741Z,9.10
2019-03-21T23:09:22.994Z,9.23
2019-03-21T23:11:53.288Z,9.53
2019-03-21T23:14:23.417Z,9.33
2019-03-21T23:16:53.648Z,8.50
2019-03-21T23:19:23.878Z,8.85
2019-03-21T23:21:54.173Z,8.88
2019-03-21T23:24:24.320Z,9.13
2019-03-21T23:26:54.537Z,8.75
2019-03-21T23:29:24.716Z,9.88
2019-03-21T23:31:54.964Z,9.20
2019-03-21T23:34:25.109Z,8.60
2019-03-21T23:36:55.334Z,8.90
2019-03-21T23:39:25.558Z,10.00
2019-03-21T23:41:55.857Z,9.25
2019-03-21T23:44:26.089Z,8.88
2019-03-21T23:46:56.318Z,9.10
2019-03-21T23:49:26.561Z,9.00
2019-03-21T23:51:56.850Z,9.15
2019-03-21T23:54:27.087Z,8.53
2019-03-21T23:57:04.389Z,8.75
2019-03-21T23:59:29.368Z,8.85
